Time;durP1;ratioP1;P1;durP2;ratioP2;P2;SDS_P1;SDS_P2;PMS_P1;PMS_P2;Temp;Humidity;BMP_temperature;BMP_pressure;BME280_temperature;BME280_humidity;BME280_pressure;Samples;Min_cycle;Max_cycle;Signal;HPM_P1;HPM_P2
2024/01/16 00:01:10;;;;;;;133.40;50.23;;;;;;;-141.97;81.25;46027.91;4994476;28;20163;-92
2024/01/16 00:03:37;;;;;;;125.40;48.93;;;;;;;-141.97;81.23;46012.53;4976803;28;20186;-92
2024/01/16 00:06:03;;;;;;;127.77;49.30;;;;;;;-141.97;81.64;46097.06;4976582;28;20487;-91
2024/01/16 00:08:28;;;;;;;129.67;49.57;;;;;;;-141.97;81.75;45962.59;4992957;28;20469;-92
2024/01/16 00:10:56;;;;;;;132.57;50.40;;;;;;;-141.97;81.69;46187.38;4993172;28;20788;-91
2024/01/16 00:13:27;;;;;;;125.67;49.47;;;;;;;-141.97;81.30;46258.44;4975569;28;20193;-91
2024/01/16 00:15:56;;;;;;;123.60;48.63;;;;;;;-141.97;81.08;46254.59;4975519;28;20406;-90
2024/01/16 00:18:22;;;;;;;124.47;47.83;;;;;;;-141.97;81.03;46612.00;4994423;28;20447;-91
2024/01/16 00:20:53;;;;;;;125.13;48.60;;;;;;;-141.97;81.22;46183.53;4976511;28;20414;-91
2024/01/16 00:23:22;;;;;;;128.93;49.90;;;;;;;-141.97;81.25;46298.81;4975741;28;20535;-92
2024/01/16 00:26:34;;;;;;;125.97;49.37;;;;;;;-141.97;81.08;46139.34;4980824;28;20493;-92
2024/01/16 00:29:02;;;;;;;139.13;51.67;;;;;;;-141.97;80.94;46089.38;4994418;28;20442;-91
2024/01/16 00:31:28;;;;;;;133.93;50.00;;;;;;;-141.97;80.87;46264.22;4977135;28;20779;-91
2024/01/16 00:33:53;;;;;;;128.43;49.53;;;;;;;-141.97;81.47;46183.53;4993862;28;20432;-91
2024/01/16 00:36:19;;;;;;;127.60;50.20;;;;;;;-141.97;81.95;45993.31;4976677;28;20537;-92
2024/01/16 00:38:45;;;;;;;133.97;50.93;;;;;;;-141.97;81.92;46246.94;4975616;28;20168;-91
2024/01/16 00:41:10;;;;;;;128.90;50.30;;;;;;;-141.97;81.72;46448.66;4975825;28;20247;-91
2024/01/16 00:43:36;;;;;;;137.03;52.60;;;;;;;-141.97;82.03;46077.84;4975099;28;20493;-93
2024/01/16 00:46:01;;;;;;;126.47;50.10;;;;;;;-141.97;82.41;46022.13;4993740;28;20234;-92
2024/01/16 00:48:27;;;;;;;136.97;52.97;;;;;;;-141.97;82.21;46031.75;4978547;28;20223;-91
2024/01/16 00:50:55;;;;;;;134.73;51.97;;;;;;;-141.97;82.41;46002.94;4978438;28;20687;-92
2024/01/16 00:53:20;;;;;;;137.67;51.60;;;;;;;-141.97;82.58;46264.22;4977219;28;20592;-91
2024/01/16 00:55:46;;;;;;;126.00;50.23;;;;;;;-141.97;82.48;46085.53;4995911;28;20410;-92
2024/01/16 00:58:11;;;;;;;136.13;51.17;;;;;;;-141.97;82.51;46060.56;4976204;28;20183;-91
2024/01/16 01:00:37;;;;;;;140.93;51.37;;;;;;;-141.97;83.22;46535.13;4997987;28;20174;-91
2024/01/16 01:03:03;;;;;;;136.80;51.07;;;;;;;-141.97;83.02;46074.00;4981659;28;20207;-92
2024/01/16 01:05:29;;;;;;;131.07;50.53;;;;;;;-141.97;83.23;45970.25;4979259;28;20187;-93
2024/01/16 01:07:58;;;;;;;128.50;49.37;;;;;;;-141.97;83.57;46196.97;4995694;28;20557;-92
2024/01/16 01:10:29;;;;;;;119.57;46.07;;;;;;;-141.97;84.37;46054.81;4976611;28;20194;-93
2024/01/16 01:12:57;;;;;;;134.40;44.10;;;;;;;-141.97;83.96;46285.34;4974627;28;20411;-92
2024/01/16 01:15:23;;;;;;;123.73;46.50;;;;;;;-141.97;84.01;46002.94;4974604;28;20407;-91
2024/01/16 01:17:49;;;;;;;124.93;48.30;;;;;;;-141.97;84.87;46077.84;4992494;28;20420;-92
2024/01/16 01:20:15;;;;;;;135.27;48.63;;;;;;;-141.97;85.45;46041.34;4974978;28;20551;-92
2024/01/16 01:22:41;;;;;;;138.53;50.00;;;;;;;-141.97;86.26;46018.28;4991829;28;20844;-91
2024/01/16 01:25:07;;;;;;;136.00;50.40;;;;;;;-141.97;86.25;46035.59;4975145;28;20407;-92
2024/01/16 01:27:33;;;;;;;132.40;52.10;;;;;;;-141.97;86.41;46066.31;4975199;28;20231;-93
2024/01/16 01:29:58;;;;;;;132.60;47.97;;;;;;;-141.97;85.82;46198.91;4992047;28;20444;-92
2024/01/16 01:32:24;;;;;;;129.73;48.83;;;;;;;-141.97;85.64;46254.59;4974576;28;20175;-92
2024/01/16 01:34:49;;;;;;;131.83;48.17;;;;;;;-141.97;85.63;46627.38;4975528;28;20248;-93
2024/01/16 01:37:15;;;;;;;133.37;49.43;;;;;;;-141.97;86.60;46496.72;4974942;28;20179;-93
2024/01/16 01:39:40;;;;;;;129.73;46.67;;;;;;;-141.97;87.13;46227.72;4974661;28;20176;-92
2024/01/16 01:42:06;;;;;;;124.23;47.00;;;;;;;-141.97;87.13;46112.44;4975239;28;20187;-91
2024/01/16 01:44:31;;;;;;;129.10;49.47;;;;;;;-141.97;87.35;46070.16;4975950;28;20547;-92
2024/01/16 01:46:58;;;;;;;139.47;52.33;;;;;;;-141.97;86.97;46093.22;4967897;28;20228;-91
2024/01/16 01:49:25;;;;;;;152.80;54.20;;;;;;;-141.97;86.75;46273.81;4967488;28;20197;-91
2024/01/16 01:51:51;;;;;;;157.00;57.43;;;;;;;-141.97;86.30;46002.94;4951560;29;20435;-91
2024/01/16 01:54:19;;;;;;;151.27;56.60;;;;;;;-141.97;85.94;46450.59;4953278;28;20492;-91
2024/01/16 01:56:46;;;;;;;147.30;53.70;;;;;;;-141.97;86.15;46025.97;4951226;28;20423;-91
2024/01/16 01:59:13;;;;;;;143.83;52.87;;;;;;;-141.97;86.21;46631.22;4967607;28;20419;-92
2024/01/16 02:01:40;;;;;;;138.90;50.87;;;;;;;-141.97;86.24;46439.06;4951555;28;20516;-92
2024/01/16 02:04:06;;;;;;;145.03;51.90;;;;;;;-141.97;86.99;46325.69;4953872;29;20484;-92
2024/01/16 02:06:32;;;;;;;137.93;48.73;;;;;;;-141.97;87.73;46047.13;4967180;28;20959;-92
2024/01/16 02:08:59;;;;;;;137.03;49.83;;;;;;;-141.97;88.05;46656.19;4951225;29;20460;-90
2024/01/16 02:11:24;;;;;;;135.37;50.63;;;;;;;-141.97;88.74;46298.81;4951341;28;20191;-91
2024/01/16 02:13:53;;;;;;;133.60;48.90;;;;;;;-141.97;88.76;46291.13;4950808;29;20428;-90
2024/01/16 02:16:22;;;;;;;142.17;51.53;;;;;;;-141.97;88.90;46308.41;4952289;28;20251;-91
2024/01/16 02:19:02;;;;;;;136.07;51.63;;;;;;;-141.97;88.70;46318.00;4953440;28;20413;-90
2024/01/16 02:22:02;;;;;;;148.20;54.50;;;;;;;-141.97;88.71;46285.34;4957377;29;20424;-91
2024/01/16 02:24:28;;;;;;;157.33;58.23;;;;;;;-141.97;88.70;45964.50;4972973;28;20475;-90
2024/01/16 02:26:54;;;;;;;158.37;59.07;;;;;;;-141.97;88.60;46210.41;4951188;28;20412;-90
2024/01/16 02:29:22;;;;;;;153.23;55.20;;;;;;;-141.97;88.20;46216.19;4966672;28;20204;-90
2024/01/16 02:31:47;;;;;;;155.17;56.37;;;;;;;-141.97;88.07;46200.81;4967358;28;20172;-90
2024/01/16 02:34:13;;;;;;;153.37;55.40;;;;;;;-141.97;87.70;46293.03;4953001;29;20432;-90
2024/01/16 02:36:38;;;;;;;156.53;58.20;;;;;;;-141.97;87.04;46617.75;4967160;28;20185;-89
2024/01/16 02:39:06;;;;;;;145.33;57.37;;;;;;;-141.97;86.34;46298.81;4952295;29;20156;-91
2024/01/16 02:41:31;;;;;;;139.93;54.83;;;;;;;-141.97;85.95;45914.56;4951464;28;20165;-91
2024/01/16 02:43:57;;;;;;;129.03;47.07;;;;;;;-141.97;85.05;46066.31;4951001;28;20440;-90
2024/01/16 02:46:22;;;;;;;131.17;49.30;;;;;;;-141.97;84.59;46454.44;4969908;28;20280;-90
2024/01/16 02:48:48;;;;;;;123.53;47.30;;;;;;;-141.97;84.15;46610.06;4974529;28;20341;-91
2024/01/16 02:51:15;;;;;;;120.37;46.17;;;;;;;-141.97;83.60;46058.63;4995513;28;20383;-91
2024/01/16 02:53:41;;;;;;;118.17;46.10;;;;;;;-141.97;83.56;46577.41;4974118;28;20223;-90
2024/01/16 02:56:08;;;;;;;118.43;45.33;;;;;;;-141.97;83.32;45968.34;4973316;28;20882;-89
2024/01/16 02:58:33;;;;;;;118.27;43.47;;;;;;;-141.97;83.08;46212.34;4973473;28;20677;-90
2024/01/16 03:00:59;;;;;;;114.80;43.63;;;;;;;-141.97;82.77;45985.63;4973151;28;20422;-89
2024/01/16 03:03:24;;;;;;;112.73;42.87;;;;;;;-141.97;82.52;46185.44;4990913;28;20568;-91
2024/01/16 03:05:50;;;;;;;111.40;41.60;;;;;;;-141.97;82.41;46587.00;4973606;28;20289;-90
2024/01/16 03:08:16;;;;;;;108.67;43.53;;;;;;;-141.97;82.16;46258.44;5003318;28;20196;-90
2024/01/16 03:10:42;;;;;;;113.33;44.40;;;;;;;-141.97;81.97;46162.38;4987340;28;20164;-91
2024/01/16 03:13:07;;;;;;;113.23;43.73;;;;;;;-141.97;81.66;46198.91;4990683;28;20163;-91
2024/01/16 03:15:33;;;;;;;109.70;45.23;;;;;;;-141.97;81.79;46289.19;4973108;28;20466;-91
2024/01/16 03:18:00;;;;;;;114.53;46.23;;;;;;;-141.97;81.92;46206.56;4988809;28;20186;-90
2024/01/16 03:20:26;;;;;;;121.40;47.53;;;;;;;-141.97;81.72;46293.03;4972881;28;20163;-91
2024/01/16 03:22:51;;;;;;;126.33;46.70;;;;;;;-141.97;81.57;46204.66;4973481;28;20425;-91
2024/01/16 03:25:17;;;;;;;118.70;48.03;;;;;;;-141.97;81.72;46166.22;4973205;28;20403;-90
2024/01/16 03:27:43;;;;;;;127.10;48.73;;;;;;;-141.97;81.50;46220.03;4982833;28;20558;-90
2024/01/16 03:31:04;;;;;;;235.27;72.13;;;;;;;-141.97;81.13;46275.75;4993146;28;20218;-90
2024/01/16 03:33:29;;;;;;;132.30;50.87;;;;;;;-141.97;80.72;46612.00;4977520;28;20481;-89
2024/01/16 03:35:54;;;;;;;123.73;48.17;;;;;;;-141.97;79.96;45966.44;4994717;28;20428;-91
2024/01/16 03:38:20;;;;;;;114.20;45.33;;;;;;;-141.97;79.87;46275.75;4993345;28;20160;-90
2024/01/16 03:40:45;;;;;;;113.37;45.07;;;;;;;-141.97;80.24;46221.94;4989841;28;20188;-90
2024/01/16 03:43:11;;;;;;;114.93;46.50;;;;;;;-141.97;80.59;46281.50;4975691;28;20172;-91
2024/01/16 03:45:36;;;;;;;119.90;44.60;;;;;;;-141.97;80.86;46619.69;4973327;28;20274;-90
2024/01/16 03:48:03;;;;;;;134.53;49.13;;;;;;;-141.97;81.00;46031.75;4957774;28;20291;-91
2024/01/16 03:50:28;;;;;;;295.63;92.50;;;;;;;-141.97;81.17;46200.81;4957475;28;20577;-90
2024/01/16 03:52:54;;;;;;;137.43;49.73;;;;;;;-141.97;80.71;46239.25;4956422;28;20420;-91
2024/01/16 03:55:20;;;;;;;128.97;49.77;;;;;;;-141.97;80.59;46258.44;4972244;28;20331;-90
2024/01/16 03:57:46;;;;;;;156.77;60.87;;;;;;;-141.97;80.81;46179.69;4973006;28;20164;-90
2024/01/16 04:00:16;;;;;;;173.27;67.60;;;;;;;-141.97;81.11;46294.97;4972668;28;20498;-91
2024/01/16 04:02:41;;;;;;;162.87;60.23;;;;;;;-141.97;80.94;46027.91;4973295;28;20625;-90
2024/01/16 04:05:07;;;;;;;197.07;74.23;;;;;;;-141.97;80.79;46039.44;4974746;28;20451;-90
2024/01/16 04:07:33;;;;;;;145.10;57.37;;;;;;;-141.97;80.84;46179.69;4985400;28;20246;-89
2024/01/16 04:09:59;;;;;;;176.77;62.10;;;;;;;-141.97;80.83;46085.53;4977633;28;20434;-90
2024/01/16 04:12:24;;;;;;;150.57;54.83;;;;;;;-141.97;80.86;46494.78;4979275;28;20710;-90
2024/01/16 04:14:56;;;;;;;120.93;43.07;;;;;;;-141.97;80.26;46287.28;4977584;28;20282;-92
2024/01/16 04:17:22;;;;;;;115.67;46.30;;;;;;;-141.97;80.13;46212.34;4994667;28;20563;-90
2024/01/16 04:19:50;;;;;;;125.83;48.30;;;;;;;-141.97;80.24;46202.72;4994974;28;20403;-90
2024/01/16 04:22:16;;;;;;;120.30;46.07;;;;;;;-141.97;80.05;46514.00;4991725;28;20188;-91
2024/01/16 04:24:42;;;;;;;118.23;47.27;;;;;;;-141.97;79.93;46262.28;4975227;28;20453;-91
2024/01/16 04:27:28;;;;;;;121.70;45.13;;;;;;;-141.97;80.65;46208.50;4991753;28;20491;-92
2024/01/16 04:29:56;;;;;;;124.63;48.13;;;;;;;-141.97;80.70;46283.44;4992297;28;20191;-91
2024/01/16 04:32:25;;;;;;;119.83;48.10;;;;;;;-141.97;80.87;46635.06;4990565;28;20524;-91
2024/01/16 04:34:51;;;;;;;121.67;48.77;;;;;;;-141.97;80.80;46162.38;4974422;28;20441;-91
2024/01/16 04:37:23;;;;;;;130.70;50.30;;;;;;;-141.97;81.01;46010.63;4990453;28;20423;-91
2024/01/16 04:39:49;;;;;;;120.70;43.90;;;;;;;-141.97;80.29;46220.03;4974002;28;20241;-90
2024/01/16 04:42:17;;;;;;;157.10;60.73;;;;;;;-141.97;80.67;46131.66;4973488;28;20426;-90
2024/01/16 04:44:58;;;;;;;119.10;45.47;;;;;;;-141.97;81.38;46187.38;4974128;28;20187;-92
2024/01/16 04:47:33;;;;;;;110.43;41.87;;;;;;;-141.97;81.34;46200.81;4973056;28;20466;-90
2024/01/16 04:50:09;;;;;;;116.23;43.63;;;;;;;-141.97;81.09;46191.22;4973897;28;20469;-91
2024/01/16 04:53:14;;;;;;;;;;;;;;;;;;;;;
2024/01/16 04:55:58;;;;;;;111.77;44.50;;;;;;;-141.97;80.61;46223.88;4988660;28;20426;-91
2024/01/16 04:58:24;;;;;;;115.10;43.80;;;;;;;-141.97;80.25;46189.28;4973122;28;20425;-91
2024/01/16 05:00:57;;;;;;;112.40;45.23;;;;;;;-141.97;79.49;46269.97;4992077;28;20858;-91
2024/01/16 05:03:40;;;;;;;148.33;58.07;;;;;;;-141.97;79.01;46283.44;4991571;28;20191;-91
2024/01/16 05:06:18;;;;;;;124.20;50.57;;;;;;;-141.97;78.65;46254.59;4992383;28;20842;-91
2024/01/16 05:08:44;;;;;;;134.37;55.13;;;;;;;-141.97;78.09;46204.66;5009102;28;20441;-91
2024/01/16 05:11:12;;;;;;;89.57;39.60;;;;;;;-141.97;77.93;46179.69;5012001;28;20475;-90
2024/01/16 05:13:39;;;;;;;88.73;37.73;;;;;;;-141.97;78.31;46085.53;4993697;28;20179;-90
2024/01/16 05:16:10;;;;;;;102.13;42.23;;;;;;;-141.97;78.11;46262.28;5010960;28;20449;-90
2024/01/16 05:18:36;;;;;;;98.67;40.40;;;;;;;-141.97;78.37;46481.34;4993609;28;20440;-92
2024/01/16 05:21:22;;;;;;;96.53;39.03;;;;;;;-141.97;78.83;46225.78;4993478;28;20532;-89
2024/01/16 05:23:47;;;;;;;85.60;36.20;;;;;;;-141.97;79.35;46204.66;5011079;28;20218;-89
2024/01/16 05:26:22;;;;;;;74.57;30.07;;;;;;;-141.97;80.10;46041.34;5011250;28;20751;-90
2024/01/16 05:28:47;;;;;;;77.00;31.07;;;;;;;-141.97;80.21;46081.69;4994095;28;20268;-90
2024/01/16 05:31:13;;;;;;;67.10;26.87;;;;;;;-141.97;80.39;46367.97;4970001;28;20949;-91
2024/01/16 05:33:41;;;;;;;80.80;29.57;;;;;;;-141.97;81.43;46277.66;4970515;28;20196;-90
2024/01/16 05:36:07;;;;;;;80.07;31.70;;;;;;;-141.97;81.60;46208.50;4972983;28;20242;-90
2024/01/16 05:38:33;;;;;;;69.07;25.93;;;;;;;-141.97;81.87;46293.03;4956013;28;20933;-90
2024/01/16 05:41:01;;;;;;;67.40;28.17;;;;;;;-141.97;81.51;46024.06;4958386;28;20172;-91
2024/01/16 05:43:47;;;;;;;62.33;24.77;;;;;;;-141.97;81.03;46081.69;4956315;28;20435;-92
2024/01/16 05:46:12;;;;;;;57.33;22.83;;;;;;;-141.97;80.03;46245.00;4969508;28;20491;-90
2024/01/16 05:48:38;;;;;;;67.37;28.07;;;;;;;-141.97;79.63;45916.47;4969994;28;20470;-90
2024/01/16 05:51:04;;;;;;;64.83;26.83;;;;;;;-141.97;79.08;45952.97;4970005;28;20179;-91
2024/01/16 05:53:30;;;;;;;63.80;26.40;;;;;;;-141.97;78.57;46260.38;4970307;28;20609;-91
2024/01/16 05:55:56;;;;;;;65.83;27.20;;;;;;;-141.97;78.94;46235.41;4954117;28;20430;-91
2024/01/16 05:58:24;;;;;;;66.03;27.33;;;;;;;-141.97;79.92;46264.22;4953883;28;20269;-92
2024/01/16 06:00:49;;;;;;;64.43;26.93;;;;;;;-141.97;79.52;45991.41;4972802;28;20435;-91
2024/01/16 06:03:15;;;;;;;54.17;23.43;;;;;;;-141.97;79.48;46189.28;4973895;28;20438;-91
2024/01/16 06:05:40;;;;;;;45.47;19.87;;;;;;;-141.97;79.09;46600.47;4954693;28;20180;-91
2024/01/16 06:08:06;;;;;;;50.40;22.57;;;;;;;-141.97;78.44;46012.53;4975629;28;20211;-91
2024/01/16 06:10:31;;;;;;;63.37;28.00;;;;;;;-141.97;77.61;46235.41;4990150;28;20175;-91
2024/01/16 06:12:57;;;;;;;178.23;58.07;;;;;;;-141.97;77.03;45939.53;4990042;28;20178;-91
2024/01/16 06:15:23;;;;;;;120.83;43.27;;;;;;;-141.97;76.63;46158.53;4989932;28;20635;-90
2024/01/16 06:17:48;;;;;;;72.97;29.57;;;;;;;-141.97;76.34;46223.88;4990094;28;20175;-90
2024/01/16 06:20:14;;;;;;;54.97;23.93;;;;;;;-141.97;76.75;46135.50;4989602;28;20513;-90
2024/01/16 06:22:40;;;;;;;71.97;30.20;;;;;;;-141.97;76.17;45962.59;4990663;28;20243;-90
2024/01/16 06:25:06;;;;;;;136.43;56.80;;;;;;;-141.97;75.66;46423.69;4991773;28;20163;-92
2024/01/16 06:27:32;;;;;;;95.40;40.47;;;;;;;-141.97;75.04;46600.47;4990072;28;20199;-91
2024/01/16 06:29:58;;;;;;;88.00;40.17;;;;;;;-141.97;75.33;46229.63;4990899;28;20796;-90
2024/01/16 06:32:23;;;;;;;134.90;56.63;;;;;;;-141.97;75.50;46177.75;4992018;28;20407;-92
2024/01/16 06:34:52;;;;;;;54.73;24.83;;;;;;;-141.97;76.02;45851.16;4976523;28;20519;-90
2024/01/16 06:37:18;;;;;;;35.43;16.70;;;;;;;-141.97;75.77;46323.78;4989945;28;20179;-90
2024/01/16 06:39:43;;;;;;;34.10;14.77;;;;;;;-141.97;75.19;45964.50;4991869;28;20480;-90
2024/01/16 06:42:09;;;;;;;21.43;10.67;;;;;;;-141.97;74.94;46081.69;4991629;28;20172;-91
2024/01/16 06:44:37;;;;;;;19.80;9.67;;;;;;;-141.97;72.91;46070.16;4992720;28;20159;-90
2024/01/16 06:47:03;;;;;;;24.50;12.10;;;;;;;-141.97;72.23;46191.22;4977429;28;20753;-91
2024/01/16 06:49:29;;;;;;;21.53;11.27;;;;;;;-141.97;71.64;45872.28;4991645;28;20573;-90
2024/01/16 06:52:00;;;;;;;25.20;12.53;;;;;;;-141.97;71.44;46175.84;4992993;28;20611;-91
2024/01/16 06:54:26;;;;;;;16.47;8.60;;;;;;;-141.97;71.49;45958.75;4994335;28;20175;-91
2024/01/16 06:56:52;;;;;;;14.90;8.73;;;;;;;-141.97;71.13;45885.72;4985889;28;20485;-90
2024/01/16 06:59:19;;;;;;;18.63;9.10;;;;;;;-141.97;71.21;45945.28;4998213;28;20183;-90
2024/01/16 07:01:45;;;;;;;19.40;10.37;;;;;;;-141.97;70.15;46087.47;4976997;28;20167;-90
2024/01/16 07:04:19;;;;;;;15.37;8.17;;;;;;;-141.97;70.13;45974.09;4977966;28;20409;-91
2024/01/16 07:06:44;;;;;;;16.83;8.07;;;;;;;-141.97;69.87;46143.19;4992741;28;20278;-89
2024/01/16 07:09:13;;;;;;;11.37;6.53;;;;;;;-141.97;69.58;46123.97;4989928;28;20889;-91
2024/01/16 07:11:45;;;;;;;8.40;4.90;;;;;;;-141.97;69.36;46540.91;4990972;28;20171;-90
2024/01/16 07:14:14;;;;;;;11.93;6.10;;;;;;;-141.97;69.32;46074.00;4995082;28;20171;-91
2024/01/16 07:16:43;;;;;;;9.87;4.97;;;;;;;-141.97;69.38;46116.28;4987555;28;20148;-91
2024/01/16 07:19:09;;;;;;;12.03;5.87;;;;;;;-141.97;69.71;46158.53;4993252;28;20456;-91
2024/01/16 07:21:37;;;;;;;9.23;5.23;;;;;;;-141.97;69.44;45879.97;5009611;28;20183;-91
2024/01/16 07:24:03;;;;;;;14.20;7.40;;;;;;;-141.97;69.49;46112.44;4980171;28;20245;-90
2024/01/16 07:26:29;;;;;;;12.67;7.03;;;;;;;-141.97;69.69;45964.50;4973907;28;20191;-90
2024/01/16 07:29:03;;;;;;;22.97;9.57;;;;;;;-141.97;69.88;45870.38;4974303;28;20485;-90
2024/01/16 07:31:29;;;;;;;24.17;9.53;;;;;;;-141.97;70.36;46064.41;4992105;28;20195;-89
2024/01/16 07:33:57;;;;;;;24.33;11.27;;;;;;;-141.97;69.93;46129.72;4994124;28;20425;-89
2024/01/16 07:36:23;;;;;;;18.57;7.93;;;;;;;-141.97;70.38;46166.22;4992823;28;20187;-90
2024/01/16 07:38:48;;;;;;;15.83;7.30;;;;;;;-141.97;70.13;46020.22;4988653;28;20644;-89
2024/01/16 07:41:14;;;;;;;14.37;8.50;;;;;;;-141.97;70.15;46366.06;4972829;28;20722;-91
2024/01/16 07:43:39;;;;;;;15.10;8.33;;;;;;;-141.97;69.80;46231.56;4974653;28;20262;-89
2024/01/16 07:46:05;;;;;;;16.77;7.63;;;;;;;-141.97;69.90;46127.81;4994880;28;20759;-85
2024/01/16 07:48:30;;;;;;;18.17;9.23;;;;;;;-141.97;69.55;46081.69;4988496;28;20266;-91
2024/01/16 07:50:56;;;;;;;13.63;9.13;;;;;;;-141.97;69.21;46131.66;4991160;28;20187;-89
2024/01/16 07:53:21;;;;;;;13.27;6.80;;;;;;;-141.97;69.33;46037.50;4993543;28;20318;-89
2024/01/16 07:55:47;;;;;;;10.40;5.67;;;;;;;-141.97;69.21;46050.97;4988186;28;20160;-88
2024/01/16 07:58:13;;;;;;;10.80;6.67;;;;;;;-141.97;68.39;46087.47;4988398;28;20541;-88
2024/01/16 08:00:38;;;;;;;13.20;6.93;;;;;;;-141.97;68.30;45972.19;4972293;28;20175;-88
2024/01/16 08:03:07;;;;;;;14.83;6.13;;;;;;;-141.97;68.02;45876.13;4972559;28;20195;-90
2024/01/16 08:05:33;;;;;;;12.57;7.10;;;;;;;-141.97;67.78;46043.28;4972895;28;20640;-88
2024/01/16 08:07:58;;;;;;;17.03;7.00;;;;;;;-141.97;67.29;46099.00;4989465;28;20343;-90
2024/01/16 08:10:24;;;;;;;14.83;7.83;;;;;;;-141.97;66.83;45960.66;4971971;28;20295;-88
2024/01/16 08:12:49;;;;;;;27.53;13.80;;;;;;;-141.97;66.93;46348.75;4989475;28;20258;-89
2024/01/16 08:15:15;;;;;;;14.47;7.03;;;;;;;-141.97;66.79;46064.41;4973535;28;20167;-90
2024/01/16 08:17:40;;;;;;;7.13;4.80;;;;;;;-141.97;66.19;45943.38;4993645;28;20510;-91
2024/01/16 08:20:09;;;;;;;8.63;5.43;;;;;;;-141.97;66.20;46022.13;5010148;28;20175;-89
2024/01/16 08:22:36;;;;;;;7.33;4.80;;;;;;;-141.97;65.73;45995.25;5013991;28;20165;-89
2024/01/16 08:25:01;;;;;;;7.23;4.77;;;;;;;-141.97;65.55;45870.38;5010692;28;20265;-91
2024/01/16 08:27:32;;;;;;;12.47;5.87;;;;;;;-141.97;65.18;46358.38;5087474;22;20287;-93
2024/01/16 08:32:33;;;;;;;11.80;6.07;;;;;;;-141.97;63.83;46100.91;5157723;22;20248;-91
2024/01/16 08:34:58;;;;;;;8.90;4.10;;;;;;;-141.97;63.53;45977.94;5028140;28;20181;-90
2024/01/16 08:37:25;;;;;;;10.80;6.27;;;;;;;-141.97;63.47;45964.50;5033409;28;20642;-90
2024/01/16 08:39:50;;;;;;;9.73;5.30;;;;;;;-141.97;63.50;45826.19;5015559;28;20240;-91
2024/01/16 08:42:17;;;;;;;7.60;4.80;;;;;;;-141.97;63.02;46024.06;5015400;28;20186;-90
2024/01/16 08:44:43;;;;;;;6.20;4.20;;;;;;;-141.97;63.04;45939.53;5015739;28;20541;-91
2024/01/16 08:47:09;;;;;;;9.83;4.20;;;;;;;-141.97;63.06;45766.63;5016069;28;20185;-91
2024/01/16 08:49:35;;;;;;;12.57;5.33;;;;;;;-141.97;62.65;46446.75;5017081;28;20260;-91
2024/01/16 08:52:02;;;;;;;8.03;4.70;;;;;;;-141.97;62.09;46116.28;5014898;28;20174;-90
2024/01/16 08:54:28;;;;;;;6.40;4.53;;;;;;;-141.97;61.12;46062.47;5015090;28;20240;-90
2024/01/16 08:56:53;;;;;;;7.23;4.83;;;;;;;-141.97;61.31;46099.00;5035027;28;20174;-90
2024/01/16 08:59:19;;;;;;;7.60;4.13;;;;;;;-141.97;61.08;46341.06;5034879;28;20162;-91
2024/01/16 09:01:45;;;;;;;6.27;4.33;;;;;;;-141.97;60.87;45966.44;5042588;28;20177;-92
2024/01/16 09:04:11;;;;;;;12.37;6.10;;;;;;;-141.97;61.32;45851.16;5036933;28;20253;-91
2024/01/16 09:06:37;;;;;;;7.77;5.07;;;;;;;-141.97;60.58;46266.13;5017830;28;20595;-92
2024/01/16 09:09:04;;;;;;;11.30;6.20;;;;;;;-141.97;60.43;46004.84;5015343;28;20300;-92
2024/01/16 09:11:30;;;;;;;10.07;5.63;;;;;;;-141.97;59.66;46331.47;5031339;28;20181;-90
2024/01/16 09:13:55;;;;;;;9.70;5.90;;;;;;;-141.97;59.02;45881.91;5017964;28;20181;-91
2024/01/16 09:16:21;;;;;;;14.97;8.60;;;;;;;-141.97;59.07;46462.13;5014901;28;20223;-91
2024/01/16 09:18:46;;;;;;;16.30;6.30;;;;;;;-141.97;58.29;46112.44;5033207;28;20262;-92
2024/01/16 09:21:12;;;;;;;15.03;7.63;;;;;;;-141.97;57.78;45981.78;5031117;28;20182;-91
2024/01/16 09:23:38;;;;;;;11.10;6.07;;;;;;;-141.97;57.27;45920.31;5034174;28;20193;-92
2024/01/16 09:26:03;;;;;;;11.43;6.70;;;;;;;-141.97;55.81;45868.44;5035536;28;20309;-92
2024/01/16 09:28:29;;;;;;;8.87;4.63;;;;;;;-141.97;54.16;46050.97;5032969;28;20309;-92
2024/01/16 09:30:56;;;;;;;6.90;4.63;;;;;;;-141.97;53.44;46120.13;5014990;28;20226;-91
2024/01/16 09:33:22;;;;;;;9.03;4.93;;;;;;;-141.97;53.43;46538.97;5031358;28;20236;-91
2024/01/16 09:35:48;;;;;;;9.93;5.70;;;;;;;-141.97;52.80;46062.47;5029972;28;20284;-92
2024/01/16 09:38:14;;;;;;;7.93;4.57;;;;;;;-141.97;53.30;45977.94;5014697;28;20673;-90
2024/01/16 09:40:39;;;;;;;8.43;4.40;;;;;;;-141.97;53.65;46335.31;5031933;28;20170;-92
2024/01/16 09:43:08;;;;;;;7.43;3.70;;;;;;;-141.97;53.42;46085.53;5022858;28;20178;-92
2024/01/16 09:45:37;;;;;;;13.30;7.03;;;;;;;-141.97;53.64;46442.91;5022879;28;20618;-92
2024/01/16 09:48:04;;;;;;;7.10;3.70;;;;;;;-141.97;52.38;45889.56;5031211;28;20236;-90
2024/01/16 09:50:30;;;;;;;5.53;3.50;;;;;;;-141.97;53.10;46014.44;5031562;28;20182;-90
2024/01/16 09:52:55;;;;;;;5.90;4.13;;;;;;;-141.97;53.03;46083.63;5033474;28;20174;-90
2024/01/16 09:55:21;;;;;;;7.63;3.17;;;;;;;-141.97;52.15;45866.53;5014091;28;20235;-90
2024/01/16 09:57:51;;;;;;;7.37;4.00;;;;;;;-141.97;52.48;46337.22;5013249;28;20244;-90
2024/01/16 10:00:17;;;;;;;6.03;3.37;;;;;;;-141.97;52.11;46020.22;5030797;28;20190;-91
2024/01/16 10:02:42;;;;;;;7.47;5.23;;;;;;;-141.97;51.88;46081.69;5030644;28;20200;-92
2024/01/16 10:05:09;;;;;;;6.97;3.57;;;;;;;-141.97;50.85;46444.81;5013225;28;20189;-92
2024/01/16 10:07:39;;;;;;;9.00;4.93;;;;;;;-141.97;50.53;46074.00;5016487;28;20205;-91
2024/01/16 10:10:05;;;;;;;7.83;4.67;;;;;;;-141.97;51.01;45981.78;5019059;28;20621;-91
2024/01/16 10:12:31;;;;;;;6.40;3.17;;;;;;;-141.97;50.15;45908.78;5031677;28;20166;-91
2024/01/16 10:14:57;;;;;;;9.80;4.23;;;;;;;-141.97;50.32;45912.63;5031709;28;20185;-92
2024/01/16 10:17:35;;;;;;;7.07;3.17;;;;;;;-141.97;50.29;45858.84;5031396;28;20294;-92
2024/01/16 10:20:04;;;;;;;6.70;3.27;;;;;;;-141.97;50.11;45999.09;5014653;28;20598;-92
2024/01/16 10:22:30;;;;;;;8.70;4.70;;;;;;;-141.97;50.20;46273.81;5014326;28;20174;-91
2024/01/16 10:25:05;;;;;;;7.93;4.43;;;;;;;-141.97;50.22;46075.94;5031294;28;20634;-89
2024/01/16 10:27:31;;;;;;;5.17;3.17;;;;;;;-141.97;50.37;45997.16;5012512;28;20236;-92
2024/01/16 10:29:57;;;;;;;6.17;3.63;;;;;;;-141.97;49.63;45858.84;5012902;28;20178;-92
2024/01/16 10:32:30;;;;;;;12.77;5.13;;;;;;;-141.97;49.60;45962.59;5029430;28;20253;-91
2024/01/16 10:35:08;;;;;;;7.10;3.40;;;;;;;-141.97;49.83;46538.97;4995171;28;20199;-90
2024/01/16 10:37:45;;;;;;;12.20;6.77;;;;;;;-141.97;49.75;46039.44;4992657;28;20178;-91
2024/01/16 10:40:18;;;;;;;6.33;4.13;;;;;;;-141.97;48.73;46348.75;4992757;28;20190;-91
2024/01/16 10:42:56;;;;;;;8.47;4.47;;;;;;;-141.97;49.60;46252.69;5001085;28;20252;-89
2024/01/16 10:45:22;;;;;;;7.20;3.63;;;;;;;-141.97;49.68;45962.59;5026838;28;20177;-91
2024/01/16 10:47:48;;;;;;;6.33;3.90;;;;;;;-141.97;50.06;46077.84;4993006;28;20206;-90
2024/01/16 10:50:14;;;;;;;11.37;3.80;;;;;;;-141.97;49.39;46074.00;4991838;28;20255;-91
2024/01/16 10:52:51;;;;;;;11.53;4.80;;;;;;;-141.97;49.60;46058.63;4993189;28;20175;-89
2024/01/16 10:55:22;;;;;;;10.97;5.90;;;;;;;-141.97;49.53;46097.06;5011968;28;20173;-91
2024/01/16 10:57:51;;;;;;;12.53;6.30;;;;;;;-141.97;48.87;46077.84;4994828;28;20183;-89
2024/01/16 11:00:20;;;;;;;14.40;5.83;;;;;;;-141.97;49.58;45962.59;4992951;28;20601;-90
2024/01/16 11:03:00;;;;;;;6.20;3.57;;;;;;;-141.97;49.01;45889.56;5010029;28;20171;-90
2024/01/16 11:05:33;;;;;;;5.50;3.27;;;;;;;-141.97;49.15;45941.44;5009058;28;20179;-90
2024/01/16 11:08:01;;;;;;;8.00;4.50;;;;;;;-141.97;49.68;46035.59;5009076;28;20217;-92
2024/01/16 11:10:27;;;;;;;10.67;6.43;;;;;;;-141.97;49.15;46058.63;5010805;28;20162;-92